Time;durP1;ratioP1;P1;durP2;ratioP2;P2;SDS_P1;SDS_P2;PMS_P1;PMS_P2;Temp;Humidity;BMP_temperature;BMP_pressure;BME280_temperature;BME280_humidity;BME280_pressure;Samples;Min_cycle;Max_cycle;Signal;HPM_P1;HPM_P2
2022/07/04 00:02:06;;;;;;;16.38;7.13;;;;;;;;;;5137611;27;20244;-47
2022/07/04 00:04:33;;;;;;;35.17;7.55;;;;;;;;;;5137397;27;20582;-48
2022/07/04 00:07:00;;;;;;;22.65;8.07;;;;;;;;;;5137511;27;20270;-47
2022/07/04 00:09:27;;;;;;;23.13;6.93;;;;;;;;;;5137056;27;20201;-48
2022/07/04 00:11:54;;;;;;;25.33;7.60;;;;;;;;;;5137332;27;20265;-47
2022/07/04 00:14:21;;;;;;;26.88;7.07;;;;;;;;;;5137675;27;20197;-50
2022/07/04 00:16:48;;;;;;;38.35;6.75;;;;;;;;;;5137237;27;20201;-51
2022/07/04 00:19:15;;;;;;;34.25;7.47;;;;;;;;;;5136954;27;20197;-47
2022/07/04 00:21:42;;;;;;;32.60;6.63;;;;;;;;;;5136909;27;20626;-48
2022/07/04 00:24:09;;;;;;;56.40;7.95;;;;;;;;;;5137102;27;20221;-52
2022/07/04 00:26:36;;;;;;;38.33;6.82;;;;;;;;;;5137424;27;20580;-49
2022/07/04 00:29:03;;;;;;;49.42;8.23;;;;;;;;;;5137188;27;20578;-49
2022/07/04 00:31:30;;;;;;;37.17;7.45;;;;;;;;;;5136687;27;20209;-50
2022/07/04 00:33:57;;;;;;;32.42;7.82;;;;;;;;;;5137384;27;20209;-52
2022/07/04 00:36:24;;;;;;;29.90;7.85;;;;;;;;;;5136908;27;20213;-48
2022/07/04 00:38:51;;;;;;;31.63;7.30;;;;;;;;;;5136729;27;20251;-51
2022/07/04 00:41:19;;;;;;;27.85;7.10;;;;;;;;;;5136879;27;20532;-49
2022/07/04 00:44:00;;;;;;;31.95;8.27;;;;;;;;;;5136543;27;20240;-51
2022/07/04 00:46:39;;;;;;;19.23;7.22;;;;;;;;;;5136531;27;20208;-46
2022/07/04 00:49:06;;;;;;;11.60;7.97;;;;;;;;;;5136729;27;20205;-46
2022/07/04 00:51:34;;;;;;;46.38;7.90;;;;;;;;;;5136376;27;20618;-46
2022/07/04 00:54:01;;;;;;;39.03;8.18;;;;;;;;;;5136472;27;20618;-46
2022/07/04 00:56:29;;;;;;;48.63;8.52;;;;;;;;;;5136516;27;20201;-46
2022/07/04 00:58:58;;;;;;;27.83;9.32;;;;;;;;;;5137143;27;20207;-46
2022/07/04 01:01:25;;;;;;;35.08;8.77;;;;;;;;;;5136313;27;20232;-46
2022/07/04 01:03:53;;;;;;;40.55;8.40;;;;;;;;;;5135970;27;20249;-46
2022/07/04 01:06:20;;;;;;;31.25;7.30;;;;;;;;;;5136739;27;20201;-47
2022/07/04 01:08:48;;;;;;;29.92;7.82;;;;;;;;;;5136390;27;20197;-47
2022/07/04 01:11:17;;;;;;;19.02;8.25;;;;;;;;;;5135978;27;20596;-47
2022/07/04 01:13:44;;;;;;;8.05;6.88;;;;;;;;;;5136392;27;20209;-48
2022/07/04 01:16:11;;;;;;;13.93;7.88;;;;;;;;;;5136200;27;20262;-48
2022/07/04 01:18:39;;;;;;;16.42;6.95;;;;;;;;;;5136318;27;20197;-46
2022/07/04 01:21:06;;;;;;;10.75;6.47;;;;;;;;;;5136140;27;20271;-46
2022/07/04 01:23:40;;;;;;;10.32;6.05;;;;;;;;;;5136128;27;20221;-47
2022/07/04 01:26:08;;;;;;;40.53;11.10;;;;;;;;;;5136388;27;20197;-46
2022/07/04 01:28:35;;;;;;;15.63;8.60;;;;;;;;;;5136143;27;20266;-46
2022/07/04 01:31:02;;;;;;;22.55;8.85;;;;;;;;;;5135988;27;20232;-46
2022/07/04 01:33:29;;;;;;;37.78;11.30;;;;;;;;;;5135825;27;20282;-46
2022/07/04 01:35:56;;;;;;;22.40;11.30;;;;;;;;;;5135722;27;20206;-48
2022/07/04 01:38:23;;;;;;;21.83;10.80;;;;;;;;;;5135513;27;20197;-46
2022/07/04 01:40:50;;;;;;;21.35;10.02;;;;;;;;;;5135732;27;20209;-46
2022/07/04 01:43:17;;;;;;;17.88;8.13;;;;;;;;;;5137528;27;20259;-46
2022/07/04 01:45:44;;;;;;;18.92;9.82;;;;;;;;;;5139844;27;20194;-46
2022/07/04 01:48:12;;;;;;;24.40;10.55;;;;;;;;;;5139868;27;20533;-47
2022/07/04 01:50:39;;;;;;;25.80;10.80;;;;;;;;;;5139639;27;20614;-46
2022/07/04 01:53:07;;;;;;;55.78;13.27;;;;;;;;;;5139572;27;20220;-46
2022/07/04 01:55:34;;;;;;;61.58;11.65;;;;;;;;;;5139522;27;20641;-48
2022/07/04 01:58:01;;;;;;;62.00;12.85;;;;;;;;;;5139762;27;20206;-48
2022/07/04 02:03:13;;;;;;;51.00;12.35;;;;;;;;;;5139281;27;20663;-47
2022/07/04 02:05:42;;;;;;;34.10;9.32;;;;;;;;;;5139617;27;20197;-47
2022/07/04 02:08:10;;;;;;;80.22;13.98;;;;;;;;;;5139526;27;20201;-48
2022/07/04 02:10:37;;;;;;;25.80;9.82;;;;;;;;;;5139391;27;20212;-50
2022/07/04 02:13:04;;;;;;;28.67;10.40;;;;;;;;;;5139315;27;20270;-49
2022/07/04 02:15:32;;;;;;;68.85;13.30;;;;;;;;;;5139343;27;20217;-51
2022/07/04 02:18:00;;;;;;;40.97;10.80;;;;;;;;;;5139165;27;20224;-48
2022/07/04 02:20:27;;;;;;;39.92;11.05;;;;;;;;;;5139367;27;20213;-46
2022/07/04 02:22:54;;;;;;;45.38;10.80;;;;;;;;;;5138980;27;20551;-47
2022/07/04 02:25:21;;;;;;;23.63;9.73;;;;;;;;;;5139143;27;20209;-48
2022/07/04 02:27:54;;;;;;;20.58;8.50;;;;;;;;;;5139084;27;20197;-47
2022/07/04 02:30:21;;;;;;;21.77;8.68;;;;;;;;;;5138313;27;20198;-47
2022/07/04 02:32:49;;;;;;;46.10;9.77;;;;;;;;;;5139180;27;20216;-48
2022/07/04 02:35:16;;;;;;;30.00;8.75;;;;;;;;;;5138974;27;20236;-47
2022/07/04 02:37:43;;;;;;;37.05;8.18;;;;;;;;;;5139004;27;20270;-48
2022/07/04 02:40:10;;;;;;;30.17;7.72;;;;;;;;;;5139361;27;20198;-50
2022/07/04 02:42:37;;;;;;;32.55;9.07;;;;;;;;;;5139511;27;20240;-48
2022/07/04 02:45:04;;;;;;;34.80;8.25;;;;;;;;;;5138882;27;20197;-48
2022/07/04 02:47:32;;;;;;;47.38;7.82;;;;;;;;;;5139452;27;20336;-51
2022/07/04 02:50:01;;;;;;;34.95;7.10;;;;;;;;;;5138789;27;20201;-47
2022/07/04 02:52:29;;;;;;;35.95;6.57;;;;;;;;;;5138910;27;20197;-47
2022/07/04 02:54:57;;;;;;;22.48;7.25;;;;;;;;;;5138551;27;20205;-47
2022/07/04 02:57:24;;;;;;;23.88;6.88;;;;;;;;;;5138633;27;20536;-46
2022/07/04 02:59:51;;;;;;;24.05;6.80;;;;;;;;;;5138613;27;20204;-46
2022/07/04 03:02:19;;;;;;;23.23;7.00;;;;;;;;;;5138964;27;20205;-47
2022/07/04 03:04:45;;;;;;;23.48;7.70;;;;;;;;;;5138978;27;20572;-49
2022/07/04 03:07:13;;;;;;;23.70;7.03;;;;;;;;;;5139004;27;20210;-57
2022/07/04 03:09:40;;;;;;;11.05;6.47;;;;;;;;;;5137457;27;20193;-58
2022/07/04 03:12:07;;;;;;;15.65;6.22;;;;;;;;;;5138714;27;20300;-54
2022/07/04 03:14:34;;;;;;;19.90;6.22;;;;;;;;;;5138305;27;20552;-57
2022/07/04 03:17:01;;;;;;;21.30;6.60;;;;;;;;;;5138445;27;20294;-55
2022/07/04 03:19:28;;;;;;;29.35;7.13;;;;;;;;;;5138788;27;20278;-58
2022/07/04 03:21:55;;;;;;;35.92;7.88;;;;;;;;;;5119980;27;20205;-57
2022/07/04 03:24:22;;;;;;;16.45;8.07;;;;;;;;;;5138120;27;20681;-57
2022/07/04 03:26:49;;;;;;;31.27;7.75;;;;;;;;;;5138962;27;20580;-57
2022/07/04 03:29:16;;;;;;;14.80;7.78;;;;;;;;;;5138313;27;20227;-58
2022/07/04 03:31:43;;;;;;;15.18;8.00;;;;;;;;;;5138177;27;20201;-58
2022/07/04 03:34:10;;;;;;;18.23;7.20;;;;;;;;;;5137892;27;20221;-57
2022/07/04 03:36:37;;;;;;;31.85;8.20;;;;;;;;;;5138163;27;20205;-58
2022/07/04 03:39:04;;;;;;;40.97;8.90;;;;;;;;;;5137781;27;20209;-57
2022/07/04 03:41:31;;;;;;;36.35;9.05;;;;;;;;;;5137731;27;20204;-56
2022/07/04 03:43:58;;;;;;;56.20;10.10;;;;;;;;;;5138142;27;20228;-56
2022/07/04 03:46:25;;;;;;;64.55;11.07;;;;;;;;;;5137065;27;20212;-56
2022/07/04 03:48:53;;;;;;;60.95;10.07;;;;;;;;;;5137629;27;20201;-58
2022/07/04 03:51:20;;;;;;;45.40;9.98;;;;;;;;;;5137891;27;20204;-57
2022/07/04 03:53:47;;;;;;;30.75;9.95;;;;;;;;;;5137576;27;20214;-57
2022/07/04 03:56:14;;;;;;;47.22;10.57;;;;;;;;;;5138022;27;20185;-56
2022/07/04 03:58:48;;;;;;;30.55;11.75;;;;;;;;;;5130715;27;20221;-56
2022/07/04 04:01:17;;;;;;;28.02;11.48;;;;;;;;;;5149131;27;20247;-57
2022/07/04 04:06:30;;;;;;;35.60;14.15;;;;;;;;;;5134085;27;20666;-59
2022/07/04 04:08:57;;;;;;;30.17;13.43;;;;;;;;;;5139795;27;20221;-55
2022/07/04 04:11:24;;;;;;;26.40;14.48;;;;;;;;;;5136974;27;20229;-56
2022/07/04 04:13:51;;;;;;;34.97;14.02;;;;;;;;;;5147233;27;20635;-59
2022/07/04 04:16:18;;;;;;;27.45;14.20;;;;;;;;;;5136625;27;20241;-56
2022/07/04 04:18:45;;;;;;;28.83;14.20;;;;;;;;;;5136170;27;20540;-56
2022/07/04 04:21:12;;;;;;;26.00;14.80;;;;;;;;;;5136156;27;20236;-57
2022/07/04 04:23:39;;;;;;;23.10;14.98;;;;;;;;;;5136132;27;20266;-57
2022/07/04 04:26:06;;;;;;;21.05;14.75;;;;;;;;;;5136015;27;20217;-58
2022/07/04 04:28:33;;;;;;;18.08;13.60;;;;;;;;;;5134940;27;20225;-58
2022/07/04 04:31:00;;;;;;;21.92;15.10;;;;;;;;;;5136067;27;20221;-57
2022/07/04 04:33:27;;;;;;;25.40;14.15;;;;;;;;;;5136251;27;20429;-57
2022/07/04 04:35:54;;;;;;;20.88;13.80;;;;;;;;;;5135852;27;20534;-56
2022/07/04 04:38:21;;;;;;;24.27;14.63;;;;;;;;;;5135947;27;20274;-57
2022/07/04 04:40:48;;;;;;;18.38;13.13;;;;;;;;;;5136106;27;20232;-58
2022/07/04 04:43:15;;;;;;;20.52;14.30;;;;;;;;;;5138731;27;20229;-58
2022/07/04 04:45:42;;;;;;;18.63;14.77;;;;;;;;;;5156671;27;20274;-58
2022/07/04 04:48:09;;;;;;;23.15;14.88;;;;;;;;;;5156510;27;20290;-58
2022/07/04 04:50:36;;;;;;;19.65;14.27;;;;;;;;;;5156305;27;20240;-58
2022/07/04 04:53:03;;;;;;;23.52;14.75;;;;;;;;;;5156187;27;20277;-58
2022/07/04 04:55:30;;;;;;;22.70;14.35;;;;;;;;;;5155676;27;20224;-59
2022/07/04 04:57:57;;;;;;;18.48;13.43;;;;;;;;;;5155400;27;20281;-58
2022/07/04 05:00:24;;;;;;;24.48;14.20;;;;;;;;;;5155846;27;20240;-59
2022/07/04 05:02:51;;;;;;;25.88;14.50;;;;;;;;;;5156073;27;20665;-57
2022/07/04 05:05:18;;;;;;;20.48;12.90;;;;;;;;;;5155757;27;20537;-59
2022/07/04 05:07:45;;;;;;;17.48;13.73;;;;;;;;;;5156574;27;20281;-58
2022/07/04 05:10:12;;;;;;;20.13;13.27;;;;;;;;;;5155740;27;20705;-58
2022/07/04 05:12:39;;;;;;;21.77;12.48;;;;;;;;;;5155643;27;20254;-58
2022/07/04 05:15:07;;;;;;;14.85;11.35;;;;;;;;;;5135990;27;20233;-57
2022/07/04 05:17:34;;;;;;;25.13;11.52;;;;;;;;;;5134377;27;20244;-58
2022/07/04 05:20:01;;;;;;;15.55;10.73;;;;;;;;;;5135104;27;20253;-57
2022/07/04 05:22:28;;;;;;;14.50;10.05;;;;;;;;;;5134276;27;20308;-58
2022/07/04 05:24:55;;;;;;;13.40;10.15;;;;;;;;;;5135319;27;20252;-58
2022/07/04 05:27:22;;;;;;;10.63;9.57;;;;;;;;;;5134304;27;20346;-58
2022/07/04 05:29:49;;;;;;;10.05;8.30;;;;;;;;;;5135146;27;20742;-57
2022/07/04 05:32:20;;;;;;;15.32;8.63;;;;;;;;;;5135268;27;20233;-59
2022/07/04 05:34:48;;;;;;;13.05;9.60;;;;;;;;;;5135432;27;20224;-58
2022/07/04 05:37:15;;;;;;;9.43;7.80;;;;;;;;;;5134826;27;20523;-58
2022/07/04 05:39:42;;;;;;;14.43;6.63;;;;;;;;;;5134987;27;20256;-58
2022/07/04 05:42:09;;;;;;;8.15;6.10;;;;;;;;;;5134295;27;20228;-59
2022/07/04 05:44:36;;;;;;;8.18;6.47;;;;;;;;;;5149767;27;20288;-58
2022/07/04 05:47:03;;;;;;;7.30;5.55;;;;;;;;;;5155546;27;20217;-58
2022/07/04 05:49:30;;;;;;;8.75;6.10;;;;;;;;;;5138151;27;20225;-58
2022/07/04 05:51:57;;;;;;;9.85;5.82;;;;;;;;;;5123917;27;20228;-58
2022/07/04 05:54:24;;;;;;;7.38;5.90;;;;;;;;;;5135149;27;20227;-58
2022/07/04 05:56:51;;;;;;;6.90;5.95;;;;;;;;;;5134028;27;20665;-58
2022/07/04 05:59:18;;;;;;;6.18;5.50;;;;;;;;;;5135065;27;20282;-59
2022/07/04 06:01:45;;;;;;;17.75;6.00;;;;;;;;;;5134698;27;20285;-58
2022/07/04 06:04:12;;;;;;;7.05;5.53;;;;;;;;;;5133903;27;20291;-58
2022/07/04 06:06:39;;;;;;;8.75;6.00;;;;;;;;;;5134581;27;20217;-57
2022/07/04 06:09:06;;;;;;;6.57;5.70;;;;;;;;;;5134881;27;20222;-51
2022/07/04 06:11:34;;;;;;;8.10;6.00;;;;;;;;;;5134242;27;20233;-50
2022/07/04 06:14:01;;;;;;;6.20;5.60;;;;;;;;;;5134357;27;20250;-54
2022/07/04 06:16:28;;;;;;;7.28;5.57;;;;;;;;;;5134450;27;20581;-50
2022/07/04 06:18:55;;;;;;;10.77;5.43;;;;;;;;;;5134231;28;20221;-55
2022/07/04 06:21:22;;;;;;;7.22;5.15;;;;;;;;;;5134947;27;20221;-54
2022/07/04 06:23:49;;;;;;;6.05;5.45;;;;;;;;;;5134552;27;20213;-53
2022/07/04 06:26:16;;;;;;;7.50;5.35;;;;;;;;;;5134140;27;20689;-50
2022/07/04 06:28:43;;;;;;;11.18;5.28;;;;;;;;;;5135425;27;20222;-56
2022/07/04 06:31:13;;;;;;;6.47;5.80;;;;;;;;;;5138458;27;20244;-51
2022/07/04 06:36:25;;;;;;;6.15;5.30;;;;;;;;;;5138656;27;20247;-55
2022/07/04 06:38:52;;;;;;;6.75;5.88;;;;;;;;;;5138031;27;20225;-57
2022/07/04 06:41:19;;;;;;;6.78;5.43;;;;;;;;;;5136414;27;20237;-57
2022/07/04 06:43:46;;;;;;;7.00;5.68;;;;;;;;;;5137173;27;20241;-52
2022/07/04 06:46:13;;;;;;;7.00;5.22;;;;;;;;;;5137075;27;20213;-55
2022/07/04 06:48:40;;;;;;;7.32;5.53;;;;;;;;;;5136100;27;20286;-55
2022/07/04 06:51:08;;;;;;;11.48;5.15;;;;;;;;;;5136781;27;20274;-52
2022/07/04 06:53:35;;;;;;;8.27;5.20;;;;;;;;;;5136656;27;20213;-59
2022/07/04 06:56:02;;;;;;;7.70;5.05;;;;;;;;;;5135798;27;20252;-58
2022/07/04 06:58:29;;;;;;;5.60;5.03;;;;;;;;;;5136772;27;20228;-58
2022/07/04 07:00:56;;;;;;;5.57;4.63;;;;;;;;;;5136643;27;20221;-58
2022/07/04 07:03:23;;;;;;;5.65;4.13;;;;;;;;;;5135697;27;20225;-59
2022/07/04 07:05:50;;;;;;;8.38;5.15;;;;;;;;;;5137592;27;20257;-58
2022/07/04 07:08:27;;;;;;;5.47;4.55;;;;;;;;;;5136682;27;20225;-58
2022/07/04 07:11:12;;;;;;;10.10;4.97;;;;;;;;;;5135488;27;20260;-59
2022/07/04 07:13:45;;;;;;;3.80;3.28;;;;;;;;;;5136615;27;20246;-59
2022/07/04 07:16:13;;;;;;;4.85;3.80;;;;;;;;;;5136017;27;20215;-58
2022/07/04 07:18:40;;;;;;;4.90;4.05;;;;;;;;;;5135313;27;20254;-59
2022/07/04 07:21:07;;;;;;;5.07;4.20;;;;;;;;;;5136052;27;20274;-58
2022/07/04 07:23:37;;;;;;;5.50;4.60;;;;;;;;;;5135483;27;20274;-59
2022/07/04 07:26:04;;;;;;;5.18;4.13;;;;;;;;;;5135447;27;20221;-58
2022/07/04 07:28:31;;;;;;;4.75;4.10;;;;;;;;;;5136491;27;20605;-58
2022/07/04 07:30:58;;;;;;;9.98;4.25;;;;;;;;;;5135793;27;21000;-58
2022/07/04 07:33:25;;;;;;;7.93;4.15;;;;;;;;;;5135125;27;20267;-57
2022/07/04 07:35:52;;;;;;;7.57;4.65;;;;;;;;;;5132859;27;20314;-58
2022/07/04 07:38:19;;;;;;;6.72;4.75;;;;;;;;;;5135783;27;20313;-59
2022/07/04 07:40:46;;;;;;;5.45;4.63;;;;;;;;;;5134223;27;20213;-57
2022/07/04 07:43:13;;;;;;;13.68;8.60;;;;;;;;;;5134722;27;20224;-58
2022/07/04 07:45:40;;;;;;;13.63;5.80;;;;;;;;;;5133273;27;20299;-57
2022/07/04 07:48:07;;;;;;;8.48;5.97;;;;;;;;;;5135023;27;20835;-58
2022/07/04 07:50:34;;;;;;;6.35;5.10;;;;;;;;;;5133624;27;20221;-57
2022/07/04 07:53:01;;;;;;;6.35;4.68;;;;;;;;;;5136627;27;20226;-57
2022/07/04 07:55:28;;;;;;;7.97;3.70;;;;;;;;;;5136329;27;20225;-57
2022/07/04 07:57:57;;;;;;;7.40;4.07;;;;;;;;;;5135692;27;20217;-58
2022/07/04 08:00:24;;;;;;;7.07;3.97;;;;;;;;;;5132606;27;20225;-57
2022/07/04 08:05:57;;;;;;;5.32;3.70;;;;;;;;;;5115432;27;20233;-58
2022/07/04 08:08:24;;;;;;;5.28;4.22;;;;;;;;;;5116202;28;20213;-57
2022/07/04 08:10:51;;;;;;;4.72;4.03;;;;;;;;;;5115320;27;20294;-59
2022/07/04 08:13:18;;;;;;;4.97;3.50;;;;;;;;;;5123658;27;20281;-58
2022/07/04 08:15:45;;;;;;;4.82;3.75;;;;;;;;;;5157072;27;20227;-58
2022/07/04 08:18:12;;;;;;;5.05;4.05;;;;;;;;;;5134811;27;20281;-59
2022/07/04 08:20:39;;;;;;;4.15;3.75;;;;;;;;;;5134038;27;20224;-58
2022/07/04 08:23:27;;;;;;;5.88;3.67;;;;;;;;;;5132661;27;20225;-58
2022/07/04 08:25:54;;;;;;;4.53;3.58;;;;;;;;;;5132690;27;20221;-59
2022/07/04 08:28:21;;;;;;;4.55;3.60;;;;;;;;;;5133361;27;20579;-60
2022/07/04 08:30:48;;;;;;;5.03;3.60;;;;;;;;;;5132435;27;20217;-60
2022/07/04 08:33:15;;;;;;;6.68;4.25;;;;;;;;;;5132594;27;20224;-58
2022/07/04 08:35:42;;;;;;;4.13;3.67;;;;;;;;;;5132802;27;20589;-59
2022/07/04 08:38:10;;;;;;;4.15;3.65;;;;;;;;;;5134616;27;20224;-58
2022/07/04 08:40:37;;;;;;;5.35;3.92;;;;;;;;;;5131964;27;20673;-59
2022/07/04 08:43:04;;;;;;;4.43;3.85;;;;;;;;;;5129304;27;20225;-58
2022/07/04 08:45:32;;;;;;;5.32;4.47;;;;;;;;;;5129314;27;20362;-60
2022/07/04 08:48:07;;;;;;;3.92;3.53;;;;;;;;;;5132754;27;20231;-57
2022/07/04 08:50:38;;;;;;;8.27;4.03;;;;;;;;;;5132562;27;20216;-57
2022/07/04 08:53:20;;;;;;;4.82;3.92;;;;;;;;;;5133184;27;20221;-61
2022/07/04 08:58:34;;;;;;;4.10;3.70;;;;;;;;;;5133425;27;20217;-57
2022/07/04 09:01:05;;;;;;;4.10;3.70;;;;;;;;;;5130848;27;20232;-57
2022/07/04 09:03:32;;;;;;;5.13;3.83;;;;;;;;;;5133694;27;20218;-56
2022/07/04 09:05:59;;;;;;;5.28;4.20;;;;;;;;;;5133710;27;20217;-55
2022/07/04 09:08:27;;;;;;;7.28;4.05;;;;;;;;;;5134122;27;20221;-53
2022/07/04 09:10:54;;;;;;;4.28;3.85;;;;;;;;;;5133610;27;20208;-53
2022/07/04 09:13:21;;;;;;;5.00;4.18;;;;;;;;;;5134010;27;20221;-56
2022/07/04 09:15:52;;;;;;;5.50;3.70;;;;;;;;;;5128679;27;20719;-54
2022/07/04 09:18:22;;;;;;;4.55;3.88;;;;;;;;;;5129150;27;20305;-56
2022/07/04 09:20:50;;;;;;;8.25;3.97;;;;;;;;;;5131551;27;20591;-56
2022/07/04 09:23:25;;;;;;;8.35;4.50;;;;;;;;;;5132769;27;20723;-52
2022/07/04 09:26:07;;;;;;;6.65;4.53;;;;;;;;;;5133848;27;20695;-53
2022/07/04 09:28:35;;;;;;;5.13;3.80;;;;;;;;;;5133327;27;20513;-55
2022/07/04 09:31:13;;;;;;;12.15;4.18;;;;;;;;;;5131168;27;20686;-49
2022/07/04 09:33:51;;;;;;;5.43;3.78;;;;;;;;;;5132315;27;20185;-50
2022/07/04 09:36:21;;;;;;;5.53;4.10;;;;;;;;;;5093437;28;20209;-55
2022/07/04 09:39:15;;;;;;;4.53;3.90;;;;;;;;;;5129975;28;20193;-49
2022/07/04 09:42:02;;;;;;;5.13;4.03;;;;;;;;;;5133876;28;20198;-50
2022/07/04 09:44:36;;;;;;;4.70;3.90;;;;;;;;;;5126794;28;20552;-49
2022/07/04 09:47:23;;;;;;;4.97;4.32;;;;;;;;;;5125025;27;20209;-51
2022/07/04 09:50:20;;;;;;;7.13;4.25;;;;;;;;;;5132516;27;20204;-55
2022/07/04 09:52:57;;;;;;;5.30;3.95;;;;;;;;;;5044916;28;20536;-52
2022/07/04 09:55:30;;;;;;;4.55;4.07;;;;;;;;;;5062492;28;20257;-54
2022/07/04 09:58:03;;;;;;;5.38;4.45;;;;;;;;;;5059748;28;20262;-56
2022/07/04 10:00:33;;;;;;;5.63;4.50;;;;;;;;;;5061199;28;20282;-56
2022/07/04 10:03:20;;;;;;;5.05;3.88;;;;;;;;;;5059556;28;20309;-52
2022/07/04 10:06:11;;;;;;;4.43;4.03;;;;;;;;;;5062347;28;20553;-56
2022/07/04 10:08:39;;;;;;;5.03;4.20;;;;;;;;;;5065191;28;20196;-58
2022/07/04 10:11:11;;;;;;;4.53;3.92;;;;;;;;;;5062055;28;20257;-54
2022/07/04 10:13:45;;;;;;;6.00;3.80;;;;;;;;;;5061609;28;20227;-55
2022/07/04 10:16:15;;;;;;;4.30;3.90;;;;;;;;;;5048576;28;20210;-55
2022/07/04 10:18:43;;;;;;;5.25;3.97;;;;;;;;;;5065389;28;20184;-54
2022/07/04 10:21:11;;;;;;;4.75;4.05;;;;;;;;;;5064687;28;20645;-53
2022/07/04 10:23:38;;;;;;;4.13;3.72;;;;;;;;;;5072029;28;20200;-58
2022/07/04 10:26:05;;;;;;;8.40;6.75;;;;;;;;;;5066521;28;20273;-55
2022/07/04 10:28:33;;;;;;;5.95;4.20;;;;;;;;;;5047100;28;20534;-56
2022/07/04 10:31:00;;;;;;;5.82;4.13;;;;;;;;;;5130624;27;20197;-57
2022/07/04 10:33:28;;;;;;;6.22;4.47;;;;;;;;;;5137387;27;20193;-57
2022/07/04 10:35:58;;;;;;;7.15;4.55;;;;;;;;;;5132168;27;20202;-55
2022/07/04 10:38:26;;;;;;;7.78;4.13;;;;;;;;;;5135377;27;20197;-53
2022/07/04 10:40:59;;;;;;;5.00;4.50;;;;;;;;;;5137936;27;20193;-53
2022/07/04 10:43:41;;;;;;;4.35;3.95;;;;;;;;;;5135370;27;20269;-57
2022/07/04 10:46:14;;;;;;;4.40;4.00;;;;;;;;;;5133819;27;20238;-53
2022/07/04 10:49:10;;;;;;;4.22;3.83;;;;;;;;;;5130867;27;20194;-57
2022/07/04 10:51:48;;;;;;;4.80;3.78;;;;;;;;;;5137103;27;20186;-55
2022/07/04 10:54:15;;;;;;;8.15;4.20;;;;;;;;;;5133412;27;20201;-54
2022/07/04 10:56:44;;;;;;;10.00;4.30;;;;;;;;;;5134736;27;20199;-52
2022/07/04 10:59:17;;;;;;;5.38;4.10;;;;;;;;;;5137069;27;20193;-56
2022/07/04 11:01:50;;;;;;;4.40;4.00;;;;;;;;;;5133593;27;20229;-55
2022/07/04 11:04:56;;;;;;;5.57;4.03;;;;;;;;;;5126577;27;20217;-54
2022/07/04 11:07:30;;;;;;;3.85;3.45;;;;;;;;;;5131424;27;20205;-53
2022/07/04 11:12:54;;;;;;;6.75;4.07;;;;;;;;;;5135735;27;20256;-57
2022/07/04 11:15:32;;;;;;;5.40;4.07;;;;;;;;;;5132469;27;20626;-55
2022/07/04 11:18:02;;;;;;;7.05;4.35;;;;;;;;;;5134926;27;20220;-55
2022/07/04 11:20:31;;;;;;;5.63;4.55;;;;;;;;;;5145354;27;20677;-56
2022/07/04 11:23:08;;;;;;;4.47;4.07;;;;;;;;;;5118847;27;20233;-56
2022/07/04 11:25:37;;;;;;;4.63;3.85;;;;;;;;;;5149758;27;20228;-49
2022/07/04 11:28:23;;;;;;;4.57;4.18;;;;;;;;;;5149605;27;20220;-54
2022/07/04 11:31:10;;;;;;;6.13;3.85;;;;;;;;;;5156860;27;20232;-56
2022/07/04 11:33:39;;;;;;;7.40;4.10;;;;;;;;;;5157482;27;20232;-54
2022/07/04 11:36:11;;;;;;;4.38;3.95;;;;;;;;;;5158223;27;20245;-56
2022/07/04 11:38:56;;;;;;;4.53;4.13;;;;;;;;;;5157633;27;20573;-53
2022/07/04 11:45:02;;;;;;;5.85;4.50;;;;;;;;;;5157832;27;20232;-48
2022/07/04 11:47:40;;;;;;;4.70;4.00;;;;;;;;;;5156591;27;20216;-55
2022/07/04 11:50:08;;;;;;;5.50;4.03;;;;;;;;;;5157469;27;20597;-52
2022/07/04 11:52:41;;;;;;;8.30;3.88;;;;;;;;;;5157576;27;20221;-52
2022/07/04 11:55:28;;;;;;;5.95;4.10;;;;;;;;;;5157341;27;20216;-52
2022/07/04 11:57:57;;;;;;;6.80;3.83;;;;;;;;;;5157428;27;20228;-48
2022/07/04 12:00:27;;;;;;;3.92;3.53;;;;;;;;;;5156054;27;20324;-53
2022/07/04 12:02:58;;;;;;;5.10;4.53;;;;;;;;;;5140098;27;20243;-53
2022/07/04 12:05:25;;;;;;;6.18;4.63;;;;;;;;;;5136531;27;20264;-50
2022/07/04 12:07:52;;;;;;;7.55;4.20;;;;;;;;;;5135085;27;20229;-54
2022/07/04 12:10:40;;;;;;;6.60;4.40;;;;;;;;;;5135750;27;20225;-52
2022/07/04 12:13:15;;;;;;;6.78;4.90;;;;;;;;;;5136323;27;20290;-51
2022/07/04 12:15:46;;;;;;;5.68;4.65;;;;;;;;;;5136116;27;20229;-49
2022/07/04 12:18:31;;;;;;;4.70;4.22;;;;;;;;;;5135464;27;20233;-56
2022/07/04 12:21:17;;;;;;;4.38;3.63;;;;;;;;;;5136226;27;20316;-56
2022/07/04 12:23:52;;;;;;;7.43;4.43;;;;;;;;;;5136190;27;20221;-55
2022/07/04 12:26:46;;;;;;;5.25;4.10;;;;;;;;;;5135620;27;20665;-51
2022/07/04 12:29:23;;;;;;;6.78;3.78;;;;;;;;;;5135711;27;20225;-52
2022/07/04 12:31:57;;;;;;;5.40;4.10;;;;;;;;;;5142694;27;20224;-55
2022/07/04 12:34:24;;;;;;;4.68;4.10;;;;;;;;;;5156448;27;20224;-49
2022/07/04 12:36:55;;;;;;;6.13;4.22;;;;;;;;;;5156726;27;20233;-51
2022/07/04 12:39:32;;;;;;;6.68;4.00;;;;;;;;;;5156167;27;20229;-56
2022/07/04 12:42:11;;;;;;;4.30;3.80;;;;;;;;;;5154195;27;20280;-54
2022/07/04 12:44:40;;;;;;;4.40;4.00;;;;;;;;;;5132875;27;20285;-54
2022/07/04 12:47:07;;;;;;;5.03;4.13;;;;;;;;;;5133951;27;20233;-56
2022/07/04 12:49:55;;;;;;;5.90;4.13;;;;;;;;;;5116748;27;20229;-55
2022/07/04 12:52:27;;;;;;;5.25;3.90;;;;;;;;;;5134279;27;20233;-57
2022/07/04 12:55:07;;;;;;;4.82;3.40;;;;;;;;;;5131922;27;20231;-50
2022/07/04 12:57:34;;;;;;;4.28;3.85;;;;;;;;;;5155239;27;20209;-53
2022/07/04 13:00:03;;;;;;;4.75;4.00;;;;;;;;;;5134633;27;20239;-53
2022/07/04 13:02:50;;;;;;;5.13;4.30;;;;;;;;;;5134133;27;20225;-50
2022/07/04 13:05:17;;;;;;;4.15;3.33;;;;;;;;;;5133838;27;20221;-54
2022/07/04 13:07:46;;;;;;;7.18;3.10;;;;;;;;;;5134054;27;20213;-53
2022/07/04 13:10:13;;;;;;;4.57;3.13;;;;;;;;;;5133480;27;20217;-52
2022/07/04 13:12:40;;;;;;;3.80;2.88;;;;;;;;;;5134151;27;20228;-58
2022/07/04 13:15:11;;;;;;;6.68;2.80;;;;;;;;;;5133751;27;20229;-50
2022/07/04 13:17:38;;;;;;;5.68;3.10;;;;;;;;;;5134657;27;20213;-49
2022/07/04 13:20:06;;;;;;;4.65;3.05;;;;;;;;;;5135013;27;20654;-57
2022/07/04 13:22:33;;;;;;;3.83;2.70;;;;;;;;;;5135174;27;20217;-51
2022/07/04 13:25:03;;;;;;;4.32;2.83;;;;;;;;;;5128779;27;20214;-54
2022/07/04 13:27:30;;;;;;;2.97;2.60;;;;;;;;;;5132730;27;20256;-58
2022/07/04 13:29:57;;;;;;;3.40;2.88;;;;;;;;;;5134716;27;20260;-57
2022/07/04 13:32:25;;;;;;;4.18;2.40;;;;;;;;;;5145760;27;20216;-52
2022/07/04 13:34:52;;;;;;;4.15;2.67;;;;;;;;;;5155529;27;20220;-49
2022/07/04 13:37:19;;;;;;;5.45;2.53;;;;;;;;;;5155623;27;20224;-48
2022/07/04 13:39:46;;;;;;;3.38;2.60;;;;;;;;;;5155187;27;20225;-49
2022/07/04 13:45:04;;;;;;;3.08;1.95;;;;;;;;;;5134350;27;20233;-49
2022/07/04 13:47:31;;;;;;;4.50;2.05;;;;;;;;;;5134259;27;20233;-53
2022/07/04 13:49:58;;;;;;;1.95;1.67;;;;;;;;;;5135043;27;20225;-54
2022/07/04 13:52:25;;;;;;;2.67;2.15;;;;;;;;;;5134632;27;20221;-55
2022/07/04 13:54:52;;;;;;;4.53;1.90;;;;;;;;;;5135133;27;20277;-54
2022/07/04 13:57:19;;;;;;;1.90;1.70;;;;;;;;;;5134436;27;20217;-52
2022/07/04 13:59:46;;;;;;;2.15;1.77;;;;;;;;;;5133620;28;20233;-53
2022/07/04 14:02:13;;;;;;;2.95;1.77;;;;;;;;;;5143434;27;20595;-55
2022/07/04 14:04:40;;;;;;;4.13;1.90;;;;;;;;;;5155318;27;20216;-50
2022/07/04 14:07:07;;;;;;;3.05;1.90;;;;;;;;;;5155275;27;20285;-54
2022/07/04 14:09:44;;;;;;;3.03;1.85;;;;;;;;;;5154480;27;20660;-52
2022/07/04 14:12:12;;;;;;;3.67;2.17;;;;;;;;;;5137041;27;20279;-56
2022/07/04 14:14:38;;;;;;;3.13;1.80;;;;;;;;;;5114212;28;20233;-49
2022/07/04 14:17:06;;;;;;;5.20;2.22;;;;;;;;;;5113665;27;20280;-51
2022/07/04 14:19:53;;;;;;;9.88;3.97;;;;;;;;;;5125567;28;20214;-53
2022/07/04 14:22:20;;;;;;;5.15;2.40;;;;;;;;;;5123066;27;20550;-57
2022/07/04 14:24:47;;;;;;;3.58;2.10;;;;;;;;;;5119102;27;20232;-49
2022/07/04 14:27:14;;;;;;;2.38;1.77;;;;;;;;;;5117093;27;20230;-53
2022/07/04 14:29:41;;;;;;;7.32;2.13;;;;;;;;;;5121913;27;20313;-51
2022/07/04 14:32:10;;;;;;;2.70;2.00;;;;;;;;;;5131730;27;20232;-56
2022/07/04 14:34:37;;;;;;;3.05;2.03;;;;;;;;;;5153185;27;20228;-50
2022/07/04 14:37:04;;;;;;;3.15;1.98;;;;;;;;;;5154584;27;20228;-50
2022/07/04 14:39:31;;;;;;;3.50;2.13;;;;;;;;;;5154946;27;20685;-50
2022/07/04 14:41:58;;;;;;;2.38;1.92;;;;;;;;;;5155207;27;20244;-50
2022/07/04 14:44:25;;;;;;;2.17;1.80;;;;;;;;;;5154636;27;20289;-52
2022/07/04 14:46:52;;;;;;;4.15;1.88;;;;;;;;;;5154946;27;20270;-49
2022/07/04 14:49:19;;;;;;;2.90;1.83;;;;;;;;;;5155453;27;20273;-52
2022/07/04 14:51:46;;;;;;;2.28;1.90;;;;;;;;;;5158560;27;20345;-51
2022/07/04 14:54:13;;;;;;;3.63;2.00;;;;;;;;;;5158664;27;20229;-47
2022/07/04 14:56:40;;;;;;;4.45;1.90;;;;;;;;;;5158986;27;20547;-49
2022/07/04 14:59:07;;;;;;;3.33;2.22;;;;;;;;;;5158297;27;20552;-51
2022/07/04 15:01:34;;;;;;;3.42;2.33;;;;;;;;;;5154409;27;20233;-52
2022/07/04 15:04:01;;;;;;;4.93;2.45;;;;;;;;;;5137924;27;20225;-51
2022/07/04 15:06:28;;;;;;;2.97;2.50;;;;;;;;;;5137628;27;20545;-49
2022/07/04 15:08:55;;;;;;;2.08;1.90;;;;;;;;;;5137820;27;20837;-57
2022/07/04 15:11:22;;;;;;;3.17;2.40;;;;;;;;;;5137585;27;20610;-53
2022/07/04 15:13:49;;;;;;;3.63;2.25;;;;;;;;;;5136931;27;20646;-55